sensor_id;sensor_type;location;lat;lon;timestamp;P1;durP1;ratioP1;P2;durP2;ratioP2
59159;SDS011;44941;45.058;20.076;2024-02-23T00:00:11;638.63;;;583.28;;
59159;SDS011;44941;45.058;20.076;2024-02-23T00:02:38;606.90;;;552.10;;
59159;SDS011;44941;45.058;20.076;2024-02-23T00:05:04;679.30;;;618.22;;
59159;SDS011;44941;45.058;20.076;2024-02-23T00:07:31;678.78;;;620.03;;
59159;SDS011;44941;45.058;20.076;2024-02-23T00:09:57;609.70;;;558.58;;
59159;SDS011;44941;45.058;20.076;2024-02-23T00:12:23;643.08;;;586.70;;
59159;SDS011;44941;45.058;20.076;2024-02-23T00:14:49;718.00;;;653.58;;
59159;SDS011;44941;45.058;20.076;2024-02-23T00:17:16;655.85;;;599.97;;
59159;SDS011;44941;45.058;20.076;2024-02-23T00:19:42;669.95;;;610.35;;
59159;SDS011;44941;45.058;20.076;2024-02-23T00:22:08;671.00;;;611.28;;
59159;SDS011;44941;45.058;20.076;2024-02-23T00:24:35;622.33;;;568.15;;
59159;SDS011;44941;45.058;20.076;2024-02-23T00:27:01;627.60;;;574.83;;
59159;SDS011;44941;45.058;20.076;2024-02-23T00:29:28;643.08;;;587.17;;
59159;SDS011;44941;45.058;20.076;2024-02-23T00:31:54;593.45;;;543.50;;
59159;SDS011;44941;45.058;20.076;2024-02-23T00:34:20;662.28;;;603.78;;
59159;SDS011;44941;45.058;20.076;2024-02-23T00:36:47;539.93;;;494.27;;
59159;SDS011;44941;45.058;20.076;2024-02-23T00:39:13;600.70;;;550.22;;
59159;SDS011;44941;45.058;20.076;2024-02-23T00:41:39;634.40;;;579.55;;
59159;SDS011;44941;45.058;20.076;2024-02-23T00:44:05;596.83;;;543.55;;
59159;SDS011;44941;45.058;20.076;2024-02-23T00:46:32;546.95;;;498.98;;
59159;SDS011;44941;45.058;20.076;2024-02-23T00:48:58;656.67;;;600.25;;
59159;SDS011;44941;45.058;20.076;2024-02-23T00:51:24;657.30;;;597.35;;
59159;SDS011;44941;45.058;20.076;2024-02-23T00:53:50;619.45;;;565.70;;
59159;SDS011;44941;45.058;20.076;2024-02-23T00:56:16;615.22;;;562.08;;
59159;SDS011;44941;45.058;20.076;2024-02-23T00:58:42;710.50;;;646.97;;
59159;SDS011;44941;45.058;20.076;2024-02-23T01:01:08;734.47;;;666.35;;
59159;SDS011;44941;45.058;20.076;2024-02-23T01:03:37;703.13;;;641.10;;
59159;SDS011;44941;45.058;20.076;2024-02-23T01:06:03;628.40;;;575.50;;
59159;SDS011;44941;45.058;20.076;2024-02-23T01:08:30;544.60;;;496.95;;
59159;SDS011;44941;45.058;20.076;2024-02-23T01:10:56;641.70;;;586.03;;
59159;SDS011;44941;45.058;20.076;2024-02-23T01:13:22;615.80;;;561.55;;
59159;SDS011;44941;45.058;20.076;2024-02-23T01:15:48;654.00;;;597.53;;
59159;SDS011;44941;45.058;20.076;2024-02-23T01:18:14;723.95;;;657.50;;
59159;SDS011;44941;45.058;20.076;2024-02-23T01:20:41;596.55;;;545.50;;
59159;SDS011;44941;45.058;20.076;2024-02-23T01:23:07;606.10;;;552.22;;
59159;SDS011;44941;45.058;20.076;2024-02-23T01:25:33;605.42;;;552.42;;
59159;SDS011;44941;45.058;20.076;2024-02-23T01:28:00;668.00;;;610.08;;
59159;SDS011;44941;45.058;20.076;2024-02-23T01:30:26;713.47;;;647.55;;
59159;SDS011;44941;45.058;20.076;2024-02-23T01:32:52;625.92;;;571.83;;
59159;SDS011;44941;45.058;20.076;2024-02-23T01:35:18;594.28;;;543.72;;
59159;SDS011;44941;45.058;20.076;2024-02-23T01:37:44;549.28;;;501.13;;
59159;SDS011;44941;45.058;20.076;2024-02-23T01:40:10;689.53;;;623.80;;
59159;SDS011;44941;45.058;20.076;2024-02-23T01:42:36;641.17;;;585.40;;
59159;SDS011;44941;45.058;20.076;2024-02-23T01:45:02;650.42;;;592.55;;
59159;SDS011;44941;45.058;20.076;2024-02-23T01:47:28;720.25;;;656.25;;
59159;SDS011;44941;45.058;20.076;2024-02-23T01:49:55;695.92;;;631.88;;
59159;SDS011;44941;45.058;20.076;2024-02-23T01:52:22;524.15;;;477.50;;
59159;SDS011;44941;45.058;20.076;2024-02-23T01:54:48;629.78;;;574.95;;
59159;SDS011;44941;45.058;20.076;2024-02-23T01:57:14;616.35;;;564.38;;
59159;SDS011;44941;45.058;20.076;2024-02-23T01:59:40;709.70;;;645.92;;
59159;SDS011;44941;45.058;20.076;2024-02-23T02:02:07;660.22;;;599.42;;
59159;SDS011;44941;45.058;20.076;2024-02-23T02:04:33;664.60;;;604.10;;
59159;SDS011;44941;45.058;20.076;2024-02-23T02:06:59;784.25;;;706.63;;
59159;SDS011;44941;45.058;20.076;2024-02-23T02:09:26;740.70;;;674.77;;
59159;SDS011;44941;45.058;20.076;2024-02-23T02:11:52;612.55;;;560.53;;
59159;SDS011;44941;45.058;20.076;2024-02-23T02:14:18;705.05;;;642.03;;
59159;SDS011;44941;45.058;20.076;2024-02-23T02:16:45;529.67;;;483.92;;
59159;SDS011;44941;45.058;20.076;2024-02-23T02:19:11;545.72;;;499.23;;
59159;SDS011;44941;45.058;20.076;2024-02-23T02:21:38;653.00;;;596.45;;
59159;SDS011;44941;45.058;20.076;2024-02-23T02:24:04;647.08;;;589.25;;
59159;SDS011;44941;45.058;20.076;2024-02-23T02:26:31;551.42;;;502.10;;
59159;SDS011;44941;45.058;20.076;2024-02-23T02:28:57;653.17;;;595.33;;
59159;SDS011;44941;45.058;20.076;2024-02-23T02:31:23;658.42;;;601.10;;
59159;SDS011;44941;45.058;20.076;2024-02-23T02:33:49;678.45;;;615.60;;
59159;SDS011;44941;45.058;20.076;2024-02-23T02:36:15;560.25;;;512.65;;
59159;SDS011;44941;45.058;20.076;2024-02-23T02:38:41;593.33;;;543.30;;
59159;SDS011;44941;45.058;20.076;2024-02-23T02:41:08;566.58;;;516.58;;
59159;SDS011;44941;45.058;20.076;2024-02-23T02:43:34;738.05;;;672.90;;
59159;SDS011;44941;45.058;20.076;2024-02-23T02:46:01;748.50;;;676.95;;
59159;SDS011;44941;45.058;20.076;2024-02-23T02:48:27;716.60;;;651.35;;
59159;SDS011;44941;45.058;20.076;2024-02-23T02:50:53;617.15;;;562.03;;
59159;SDS011;44941;45.058;20.076;2024-02-23T02:53:20;649.33;;;592.28;;
59159;SDS011;44941;45.058;20.076;2024-02-23T02:55:46;567.45;;;517.78;;
59159;SDS011;44941;45.058;20.076;2024-02-23T02:58:13;614.55;;;563.35;;
59159;SDS011;44941;45.058;20.076;2024-02-23T03:00:39;536.28;;;491.83;;
59159;SDS011;44941;45.058;20.076;2024-02-23T03:03:05;682.03;;;620.20;;
59159;SDS011;44941;45.058;20.076;2024-02-23T03:05:31;608.50;;;558.58;;
59159;SDS011;44941;45.058;20.076;2024-02-23T03:07:58;667.08;;;611.88;;
59159;SDS011;44941;45.058;20.076;2024-02-23T03:10:24;607.53;;;555.95;;
59159;SDS011;44941;45.058;20.076;2024-02-23T03:12:50;658.60;;;603.55;;
59159;SDS011;44941;45.058;20.076;2024-02-23T03:15:16;563.67;;;515.08;;
59159;SDS011;44941;45.058;20.076;2024-02-23T03:17:42;548.45;;;502.58;;
59159;SDS011;44941;45.058;20.076;2024-02-23T03:20:08;591.42;;;539.75;;
59159;SDS011;44941;45.058;20.076;2024-02-23T03:22:35;608.42;;;556.47;;
59159;SDS011;44941;45.058;20.076;2024-02-23T03:25:01;682.85;;;622.33;;
59159;SDS011;44941;45.058;20.076;2024-02-23T03:27:33;720.13;;;656.67;;
59159;SDS011;44941;45.058;20.076;2024-02-23T03:30:01;613.90;;;561.78;;
59159;SDS011;44941;45.058;20.076;2024-02-23T03:32:27;728.75;;;664.28;;
59159;SDS011;44941;45.058;20.076;2024-02-23T03:34:56;748.35;;;677.47;;
59159;SDS011;44941;45.058;20.076;2024-02-23T03:37:22;622.95;;;569.20;;
59159;SDS011;44941;45.058;20.076;2024-02-23T03:39:48;591.28;;;541.63;;
59159;SDS011;44941;45.058;20.076;2024-02-23T03:42:14;613.65;;;561.20;;
59159;SDS011;44941;45.058;20.076;2024-02-23T03:44:40;653.90;;;597.55;;
59159;SDS011;44941;45.058;20.076;2024-02-23T03:47:07;729.35;;;665.30;;
59159;SDS011;44941;45.058;20.076;2024-02-23T03:49:34;689.00;;;630.70;;
59159;SDS011;44941;45.058;20.076;2024-02-23T03:52:00;534.38;;;489.55;;
59159;SDS011;44941;45.058;20.076;2024-02-23T03:54:26;578.35;;;528.80;;
59159;SDS011;44941;45.058;20.076;2024-02-23T03:56:52;548.10;;;501.35;;
59159;SDS011;44941;45.058;20.076;2024-02-23T03:59:18;593.95;;;543.60;;
59159;SDS011;44941;45.058;20.076;2024-02-23T04:01:45;532.22;;;488.45;;
59159;SDS011;44941;45.058;20.076;2024-02-23T04:04:11;671.10;;;612.78;;
59159;SDS011;44941;45.058;20.076;2024-02-23T04:06:37;651.70;;;595.83;;
59159;SDS011;44941;45.058;20.076;2024-02-23T04:09:03;631.20;;;574.00;;
59159;SDS011;44941;45.058;20.076;2024-02-23T04:11:30;723.13;;;655.40;;
59159;SDS011;44941;45.058;20.076;2024-02-23T04:13:56;533.65;;;489.58;;
59159;SDS011;44941;45.058;20.076;2024-02-23T04:16:25;588.38;;;538.47;;
59159;SDS011;44941;45.058;20.076;2024-02-23T04:18:51;782.40;;;702.15;;
59159;SDS011;44941;45.058;20.076;2024-02-23T04:21:17;599.85;;;549.20;;
59159;SDS011;44941;45.058;20.076;2024-02-23T04:23:43;728.53;;;661.92;;
59159;SDS011;44941;45.058;20.076;2024-02-23T04:26:10;616.70;;;563.58;;
59159;SDS011;44941;45.058;20.076;2024-02-23T04:28:39;655.42;;;596.13;;
59159;SDS011;44941;45.058;20.076;2024-02-23T04:31:05;581.13;;;532.70;;
59159;SDS011;44941;45.058;20.076;2024-02-23T04:33:31;738.95;;;671.95;;
59159;SDS011;44941;45.058;20.076;2024-02-23T04:35:58;719.33;;;656.78;;
59159;SDS011;44941;45.058;20.076;2024-02-23T04:38:24;616.00;;;563.30;;
59159;SDS011;44941;45.058;20.076;2024-02-23T04:40:50;564.85;;;517.35;;
59159;SDS011;44941;45.058;20.076;2024-02-23T04:43:16;584.13;;;534.67;;
59159;SDS011;44941;45.058;20.076;2024-02-23T04:45:42;726.92;;;662.78;;
59159;SDS011;44941;45.058;20.076;2024-02-23T04:48:08;736.53;;;670.15;;
59159;SDS011;44941;45.058;20.076;2024-02-23T04:50:41;651.13;;;594.90;;
59159;SDS011;44941;45.058;20.076;2024-02-23T04:53:07;581.55;;;532.30;;
59159;SDS011;44941;45.058;20.076;2024-02-23T04:55:33;589.83;;;539.35;;
59159;SDS011;44941;45.058;20.076;2024-02-23T04:57:59;598.25;;;547.15;;
59159;SDS011;44941;45.058;20.076;2024-02-23T05:00:25;669.28;;;610.75;;
59159;SDS011;44941;45.058;20.076;2024-02-23T05:02:57;606.03;;;552.17;;
59159;SDS011;44941;45.058;20.076;2024-02-23T05:05:24;629.65;;;575.13;;
59159;SDS011;44941;45.058;20.076;2024-02-23T05:07:50;676.28;;;615.30;;
59159;SDS011;44941;45.058;20.076;2024-02-23T05:10:16;649.10;;;589.72;;
59159;SDS011;44941;45.058;20.076;2024-02-23T05:12:42;582.67;;;533.05;;
59159;SDS011;44941;45.058;20.076;2024-02-23T05:15:08;694.63;;;630.22;;
59159;SDS011;44941;45.058;20.076;2024-02-23T05:17:34;746.97;;;680.83;;
59159;SDS011;44941;45.058;20.076;2024-02-23T05:20:00;680.30;;;621.03;;
59159;SDS011;44941;45.058;20.076;2024-02-23T05:22:32;690.67;;;631.85;;
59159;SDS011;44941;45.058;20.076;2024-02-23T05:24:58;605.70;;;555.80;;
59159;SDS011;44941;45.058;20.076;2024-02-23T05:27:24;639.47;;;583.17;;
59159;SDS011;44941;45.058;20.076;2024-02-23T05:29:52;671.45;;;613.03;;
59159;SDS011;44941;45.058;20.076;2024-02-23T05:32:18;635.17;;;578.10;;
59159;SDS011;44941;45.058;20.076;2024-02-23T05:34:44;588.53;;;537.55;;
59159;SDS011;44941;45.058;20.076;2024-02-23T05:37:10;685.25;;;624.63;;
59159;SDS011;44941;45.058;20.076;2024-02-23T05:39:36;691.30;;;630.15;;
59159;SDS011;44941;45.058;20.076;2024-02-23T05:42:03;522.45;;;477.90;;
59159;SDS011;44941;45.058;20.076;2024-02-23T05:44:29;692.83;;;631.03;;
59159;SDS011;44941;45.058;20.076;2024-02-23T05:46:55;562.33;;;514.92;;
59159;SDS011;44941;45.058;20.076;2024-02-23T05:49:21;642.78;;;589.42;;
59159;SDS011;44941;45.058;20.076;2024-02-23T05:51:47;636.13;;;580.88;;
59159;SDS011;44941;45.058;20.076;2024-02-23T05:54:13;636.78;;;580.65;;
59159;SDS011;44941;45.058;20.076;2024-02-23T05:56:39;609.55;;;555.58;;
59159;SDS011;44941;45.058;20.076;2024-02-23T05:59:05;701.75;;;638.42;;
59159;SDS011;44941;45.058;20.076;2024-02-23T06:01:32;719.00;;;652.38;;
59159;SDS011;44941;45.058;20.076;2024-02-23T06:03:58;630.55;;;576.22;;
59159;SDS011;44941;45.058;20.076;2024-02-23T06:06:29;660.45;;;604.85;;
59159;SDS011;44941;45.058;20.076;2024-02-23T06:08:56;714.67;;;649.17;;
59159;SDS011;44941;45.058;20.076;2024-02-23T06:11:22;614.63;;;562.63;;
59159;SDS011;44941;45.058;20.076;2024-02-23T06:13:48;738.05;;;672.40;;
59159;SDS011;44941;45.058;20.076;2024-02-23T06:16:14;801.95;;;727.80;;
59159;SDS011;44941;45.058;20.076;2024-02-23T06:18:40;729.58;;;661.83;;
59159;SDS011;44941;45.058;20.076;2024-02-23T06:21:13;669.08;;;609.70;;
59159;SDS011;44941;45.058;20.076;2024-02-23T06:23:39;709.28;;;645.83;;
59159;SDS011;44941;45.058;20.076;2024-02-23T06:26:06;648.05;;;590.25;;
59159;SDS011;44941;45.058;20.076;2024-02-23T06:28:33;687.20;;;626.45;;
59159;SDS011;44941;45.058;20.076;2024-02-23T06:30:59;684.42;;;623.22;;
59159;SDS011;44941;45.058;20.076;2024-02-23T06:33:26;698.05;;;633.10;;
59159;SDS011;44941;45.058;20.076;2024-02-23T06:35:52;799.42;;;715.15;;
59159;SDS011;44941;45.058;20.076;2024-02-23T06:38:18;714.03;;;650.35;;
59159;SDS011;44941;45.058;20.076;2024-02-23T06:40:44;688.22;;;627.63;;
59159;SDS011;44941;45.058;20.076;2024-02-23T06:43:10;773.63;;;701.35;;
59159;SDS011;44941;45.058;20.076;2024-02-23T06:45:36;864.08;;;778.63;;
59159;SDS011;44941;45.058;20.076;2024-02-23T06:48:02;701.42;;;636.72;;
59159;SDS011;44941;45.058;20.076;2024-02-23T06:50:35;771.17;;;700.65;;
59159;SDS011;44941;45.058;20.076;2024-02-23T06:53:01;751.28;;;681.63;;
59159;SDS011;44941;45.058;20.076;2024-02-23T06:55:27;844.08;;;764.70;;
59159;SDS011;44941;45.058;20.076;2024-02-23T06:57:53;765.05;;;696.90;;
59159;SDS011;44941;45.058;20.076;2024-02-23T07:00:20;732.08;;;666.47;;
59159;SDS011;44941;45.058;20.076;2024-02-23T07:02:46;812.17;;;732.30;;
59159;SDS011;44941;45.058;20.076;2024-02-23T07:05:12;706.60;;;640.85;;
59159;SDS011;44941;45.058;20.076;2024-02-23T07:07:39;776.15;;;703.90;;
59159;SDS011;44941;45.058;20.076;2024-02-23T07:10:06;760.58;;;691.83;;
59159;SDS011;44941;45.058;20.076;2024-02-23T07:12:32;851.38;;;770.95;;
59159;SDS011;44941;45.058;20.076;2024-02-23T07:14:58;775.50;;;707.47;;
59159;SDS011;44941;45.058;20.076;2024-02-23T07:17:24;804.10;;;722.15;;
59159;SDS011;44941;45.058;20.076;2024-02-23T07:19:50;810.63;;;732.63;;
59159;SDS011;44941;45.058;20.076;2024-02-23T07:22:18;865.20;;;776.90;;
59159;SDS011;44941;45.058;20.076;2024-02-23T07:24:45;764.90;;;694.92;;
59159;SDS011;44941;45.058;20.076;2024-02-23T07:27:11;915.70;;;820.92;;
59159;SDS011;44941;45.058;20.076;2024-02-23T07:29:37;707.92;;;640.65;;
59159;SDS011;44941;45.058;20.076;2024-02-23T07:32:03;719.28;;;651.97;;
59159;SDS011;44941;45.058;20.076;2024-02-23T07:34:30;873.75;;;787.92;;
59159;SDS011;44941;45.058;20.076;2024-02-23T07:36:56;808.85;;;728.17;;
59159;SDS011;44941;45.058;20.076;2024-02-23T07:39:23;768.10;;;696.13;;
59159;SDS011;44941;45.058;20.076;2024-02-23T07:41:49;780.83;;;708.17;;
59159;SDS011;44941;45.058;20.076;2024-02-23T07:44:15;801.70;;;724.83;;
59159;SDS011;44941;45.058;20.076;2024-02-23T07:46:41;903.53;;;812.85;;
59159;SDS011;44941;45.058;20.076;2024-02-23T07:49:07;892.67;;;801.45;;
59159;SDS011;44941;45.058;20.076;2024-02-23T07:51:42;857.13;;;774.03;;
59159;SDS011;44941;45.058;20.076;2024-02-23T07:54:08;863.30;;;779.53;;
59159;SDS011;44941;45.058;20.076;2024-02-23T07:56:34;798.78;;;720.17;;
59159;SDS011;44941;45.058;20.076;2024-02-23T07:59:00;902.00;;;804.47;;
59159;SDS011;44941;45.058;20.076;2024-02-23T08:01:28;918.70;;;821.08;;
59159;SDS011;44941;45.058;20.076;2024-02-23T08:03:54;923.55;;;826.33;;
59159;SDS011;44941;45.058;20.076;2024-02-23T08:06:20;833.67;;;747.22;;
59159;SDS011;44941;45.058;20.076;2024-02-23T08:08:46;818.47;;;738.67;;
59159;SDS011;44941;45.058;20.076;2024-02-23T08:11:12;930.20;;;832.10;;
59159;SDS011;44941;45.058;20.076;2024-02-23T08:13:39;792.13;;;706.28;;
59159;SDS011;44941;45.058;20.076;2024-02-23T08:16:06;855.00;;;770.25;;
59159;SDS011;44941;45.058;20.076;2024-02-23T08:18:32;803.88;;;728.33;;
59159;SDS011;44941;45.058;20.076;2024-02-23T08:20:58;871.50;;;785.63;;
59159;SDS011;44941;45.058;20.076;2024-02-23T08:23:27;1025.50;;;897.53;;
59159;SDS011;44941;45.058;20.076;2024-02-23T08:25:53;987.65;;;861.67;;
59159;SDS011;44941;45.058;20.076;2024-02-23T08:28:22;1011.50;;;860.78;;
59159;SDS011;44941;45.058;20.076;2024-02-23T08:30:48;870.67;;;781.67;;
59159;SDS011;44941;45.058;20.076;2024-02-23T08:33:14;849.67;;;763.42;;
59159;SDS011;44941;45.058;20.076;2024-02-23T08:35:40;962.90;;;851.83;;
59159;SDS011;44941;45.058;20.076;2024-02-23T08:38:10;1196.03;;;899.20;;
59159;SDS011;44941;45.058;20.076;2024-02-23T08:40:36;920.15;;;821.42;;
59159;SDS011;44941;45.058;20.076;2024-02-23T08:43:04;1101.30;;;918.70;;
59159;SDS011;44941;45.058;20.076;2024-02-23T08:45:30;975.67;;;814.40;;
59159;SDS011;44941;45.058;20.076;2024-02-23T08:47:56;1197.80;;;881.58;;
59159;SDS011;44941;45.058;20.076;2024-02-23T08:50:23;1213.68;;;907.30;;
59159;SDS011;44941;45.058;20.076;2024-02-23T08:53:01;1243.95;;;930.50;;
59159;SDS011;44941;45.058;20.076;2024-02-23T08:55:27;1209.68;;;855.25;;
59159;SDS011;44941;45.058;20.076;2024-02-23T08:57:53;871.28;;;781.75;;
59159;SDS011;44941;45.058;20.076;2024-02-23T09:00:19;1010.42;;;841.83;;
59159;SDS011;44941;45.058;20.076;2024-02-23T09:02:45;927.92;;;741.95;;
59159;SDS011;44941;45.058;20.076;2024-02-23T09:05:11;1136.22;;;864.78;;
59159;SDS011;44941;45.058;20.076;2024-02-23T09:07:37;1011.42;;;838.90;;
59159;SDS011;44941;45.058;20.076;2024-02-23T09:10:04;961.13;;;840.92;;
59159;SDS011;44941;45.058;20.076;2024-02-23T09:12:30;960.85;;;803.30;;
59159;SDS011;44941;45.058;20.076;2024-02-23T09:14:56;1014.30;;;844.10;;
59159;SDS011;44941;45.058;20.076;2024-02-23T09:17:22;1012.72;;;826.00;;
59159;SDS011;44941;45.058;20.076;2024-02-23T09:19:48;1026.72;;;843.53;;
59159;SDS011;44941;45.058;20.076;2024-02-23T09:22:19;1060.25;;;877.83;;
59159;SDS011;44941;45.058;20.076;2024-02-23T09:24:45;1201.70;;;906.13;;
59159;SDS011;44941;45.058;20.076;2024-02-23T09:27:11;1347.53;;;915.75;;
59159;SDS011;44941;45.058;20.076;2024-02-23T09:29:37;1355.80;;;956.97;;
59159;SDS011;44941;45.058;20.076;2024-02-23T09:32:03;1132.35;;;866.50;;
59159;SDS011;44941;45.058;20.076;2024-02-23T09:34:30;1237.13;;;911.78;;
59159;SDS011;44941;45.058;20.076;2024-02-23T09:36:56;1290.80;;;936.60;;
59159;SDS011;44941;45.058;20.076;2024-02-23T09:39:22;1207.25;;;803.78;;
59159;SDS011;44941;45.058;20.076;2024-02-23T09:41:51;883.47;;;786.40;;
59159;SDS011;44941;45.058;20.076;2024-02-23T09:44:18;1202.97;;;919.63;;
59159;SDS011;44941;45.058;20.076;2024-02-23T09:46:46;980.90;;;804.65;;
59159;SDS011;44941;45.058;20.076;2024-02-23T09:49:13;1268.97;;;930.05;;
59159;SDS011;44941;45.058;20.076;2024-02-23T09:51:41;1019.10;;;810.28;;
59159;SDS011;44941;45.058;20.076;2024-02-23T09:54:07;1320.30;;;905.83;;
59159;SDS011;44941;45.058;20.076;2024-02-23T09:56:33;1150.97;;;902.97;;
59159;SDS011;44941;45.058;20.076;2024-02-23T09:59:02;1297.70;;;913.00;;
59159;SDS011;44941;45.058;20.076;2024-02-23T10:01:30;1107.15;;;877.72;;
59159;SDS011;44941;45.058;20.076;2024-02-23T10:03:57;1209.57;;;889.20;;
59159;SDS011;44941;45.058;20.076;2024-02-23T10:06:27;1050.22;;;860.88;;
59159;SDS011;44941;45.058;20.076;2024-02-23T10:08:53;1069.07;;;859.25;;
59159;SDS011;44941;45.058;20.076;2024-02-23T10:11:20;1491.32;;;925.03;;
59159;SDS011;44941;45.058;20.076;2024-02-23T10:13:50;1376.00;;;934.13;;
59159;SDS011;44941;45.058;20.076;2024-02-23T10:16:17;1399.43;;;922.13;;
59159;SDS011;44941;45.058;20.076;2024-02-23T10:18:45;1299.15;;;918.67;;
59159;SDS011;44941;45.058;20.076;2024-02-23T10:21:13;1242.30;;;905.33;;
59159;SDS011;44941;45.058;20.076;2024-02-23T10:23:39;1334.50;;;926.10;;
59159;SDS011;44941;45.058;20.076;2024-02-23T10:26:06;937.33;;;787.93;;
59159;SDS011;44941;45.058;20.076;2024-02-23T10:28:33;1247.72;;;887.60;;
59159;SDS011;44941;45.058;20.076;2024-02-23T10:31:00;1293.70;;;881.53;;
59159;SDS011;44941;45.058;20.076;2024-02-23T10:33:27;958.40;;;795.95;;
59159;SDS011;44941;45.058;20.076;2024-02-23T10:35:55;948.25;;;770.50;;
59159;SDS011;44941;45.058;20.076;2024-02-23T10:38:26;1001.42;;;770.30;;
59159;SDS011;44941;45.058;20.076;2024-02-23T10:40:55;859.58;;;758.22;;
59159;SDS011;44941;45.058;20.076;2024-02-23T10:43:32;1350.38;;;906.42;;
59159;SDS011;44941;45.058;20.076;2024-02-23T10:45:59;1575.95;;;918.67;;
59159;SDS011;44941;45.058;20.076;2024-02-23T10:48:33;1139.93;;;850.17;;
59159;SDS011;44941;45.058;20.076;2024-02-23T10:50:59;1334.53;;;913.60;;
59159;SDS011;44941;45.058;20.076;2024-02-23T10:53:41;1377.15;;;919.80;;
59159;SDS011;44941;45.058;20.076;2024-02-23T10:56:07;1402.65;;;925.75;;
59159;SDS011;44941;45.058;20.076;2024-02-23T10:58:33;1171.78;;;871.13;;
59159;SDS011;44941;45.058;20.076;2024-02-23T11:01:03;1124.68;;;859.25;;
59159;SDS011;44941;45.058;20.076;2024-02-23T11:03:30;1261.13;;;886.63;;
59159;SDS011;44941;45.058;20.076;2024-02-23T11:05:59;1031.15;;;825.65;;
59159;SDS011;44941;45.058;20.076;2024-02-23T11:08:32;1133.03;;;822.53;;
59159;SDS011;44941;45.058;20.076;2024-02-23T11:11:06;1365.78;;;909.58;;
59159;SDS011;44941;45.058;20.076;2024-02-23T11:13:36;1107.00;;;839.97;;
59159;SDS011;44941;45.058;20.076;2024-02-23T11:16:05;1151.40;;;813.97;;
59159;SDS011;44941;45.058;20.076;2024-02-23T11:18:36;1416.30;;;928.72;;
59159;SDS011;44941;45.058;20.076;2024-02-23T11:21:03;1242.88;;;892.58;;
59159;SDS011;44941;45.058;20.076;2024-02-23T11:23:42;1586.20;;;943.78;;
59159;SDS011;44941;45.058;20.076;2024-02-23T11:26:09;1111.63;;;811.90;;
59159;SDS011;44941;45.058;20.076;2024-02-23T11:28:43;1136.15;;;838.13;;
59159;SDS011;44941;45.058;20.076;2024-02-23T11:31:15;1124.72;;;856.28;;
59159;SDS011;44941;45.058;20.076;2024-02-23T11:33:49;1057.93;;;818.55;;
59159;SDS011;44941;45.058;20.076;2024-02-23T11:36:36;892.85;;;746.38;;
59159;SDS011;44941;45.058;20.076;2024-02-23T11:39:01;1245.20;;;869.67;;
59159;SDS011;44941;45.058;20.076;2024-02-23T11:41:28;1344.68;;;892.30;;
59159;SDS011;44941;45.058;20.076;2024-02-23T11:43:55;1346.32;;;898.75;;
59159;SDS011;44941;45.058;20.076;2024-02-23T11:46:21;1286.18;;;859.85;;
59159;SDS011;44941;45.058;20.076;2024-02-23T11:48:48;1364.72;;;893.72;;
59159;SDS011;44941;45.058;20.076;2024-02-23T11:51:20;1308.57;;;902.92;;
59159;SDS011;44941;45.058;20.076;2024-02-23T11:53:47;1374.05;;;935.45;;
59159;SDS011;44941;45.058;20.076;2024-02-23T11:56:13;1323.20;;;853.00;;
59159;SDS011;44941;45.058;20.076;2024-02-23T11:58:40;1170.88;;;836.53;;
59159;SDS011;44941;45.058;20.076;2024-02-23T12:01:06;959.13;;;716.90;;
59159;SDS011;44941;45.058;20.076;2024-02-23T12:03:32;1121.55;;;826.00;;
59159;SDS011;44941;45.058;20.076;2024-02-23T12:06:00;983.58;;;746.47;;
59159;SDS011;44941;45.058;20.076;2024-02-23T12:08:26;1167.38;;;837.35;;
59159;SDS011;44941;45.058;20.076;2024-02-23T12:10:56;1335.85;;;915.10;;
59159;SDS011;44941;45.058;20.076;2024-02-23T12:13:25;932.15;;;729.35;;
59159;SDS011;44941;45.058;20.076;2024-02-23T12:15:54;1329.82;;;864.88;;
59159;SDS011;44941;45.058;20.076;2024-02-23T12:18:21;1254.32;;;841.00;;
59159;SDS011;44941;45.058;20.076;2024-02-23T12:23:37;1133.78;;;793.75;;
59159;SDS011;44941;45.058;20.076;2024-02-23T12:26:03;1023.22;;;757.58;;
59159;SDS011;44941;45.058;20.076;2024-02-23T12:28:29;1116.43;;;798.70;;
59159;SDS011;44941;45.058;20.076;2024-02-23T12:31:02;932.03;;;724.55;;
59159;SDS011;44941;45.058;20.076;2024-02-23T12:33:29;909.70;;;741.45;;
59159;SDS011;44941;45.058;20.076;2024-02-23T12:35:55;1043.55;;;786.40;;
59159;SDS011;44941;45.058;20.076;2024-02-23T12:38:21;1505.68;;;938.08;;
59159;SDS011;44941;45.058;20.076;2024-02-23T12:40:48;1153.10;;;812.00;;
59159;SDS011;44941;45.058;20.076;2024-02-23T12:43:14;1449.13;;;910.25;;
59159;SDS011;44941;45.058;20.076;2024-02-23T12:45:40;1332.40;;;853.53;;
59159;SDS011;44941;45.058;20.076;2024-02-23T12:48:09;1350.05;;;899.03;;
59159;SDS011;44941;45.058;20.076;2024-02-23T12:50:35;1189.55;;;813.55;;
59159;SDS011;44941;45.058;20.076;2024-02-23T12:55:52;1066.75;;;759.92;;
59159;SDS011;44941;45.058;20.076;2024-02-23T12:58:18;1291.72;;;871.53;;
59159;SDS011;44941;45.058;20.076;2024-02-23T13:00:44;1255.38;;;842.80;;
59159;SDS011;44941;45.058;20.076;2024-02-23T13:03:10;1279.07;;;837.60;;
59159;SDS011;44941;45.058;20.076;2024-02-23T13:05:36;1340.10;;;897.25;;
59159;SDS011;44941;45.058;20.076;2024-02-23T13:08:03;1278.00;;;855.65;;
59159;SDS011;44941;45.058;20.076;2024-02-23T13:10:29;1381.28;;;906.67;;
59159;SDS011;44941;45.058;20.076;2024-02-23T13:12:55;1412.03;;;897.10;;
59159;SDS011;44941;45.058;20.076;2024-02-23T13:15:21;1315.45;;;845.92;;
59159;SDS011;44941;45.058;20.076;2024-02-23T13:17:53;1351.18;;;876.78;;
59159;SDS011;44941;45.058;20.076;2024-02-23T13:20:25;1337.65;;;894.03;;
59159;SDS011;44941;45.058;20.076;2024-02-23T13:26:21;1147.75;;;812.75;;
59159;SDS011;44941;45.058;20.076;2024-02-23T13:29:07;902.38;;;749.60;;
59159;SDS011;44941;45.058;20.076;2024-02-23T13:31:36;1403.00;;;890.97;;
59159;SDS011;44941;45.058;20.076;2024-02-23T13:34:03;1426.87;;;889.67;;
59159;SDS011;44941;45.058;20.076;2024-02-23T13:36:29;1472.05;;;911.50;;
59159;SDS011;44941;45.058;20.076;2024-02-23T13:38:55;1420.65;;;876.72;;
59159;SDS011;44941;45.058;20.076;2024-02-23T13:41:21;1209.75;;;810.47;;
59159;SDS011;44941;45.058;20.076;2024-02-23T13:43:47;1099.50;;;738.90;;
59159;SDS011;44941;45.058;20.076;2024-02-23T13:46:13;1455.82;;;885.45;;
59159;SDS011;44941;45.058;20.076;2024-02-23T13:48:39;1555.78;;;934.40;;